Time;durP1;ratioP1;P1;durP2;ratioP2;P2;SDS_P1;SDS_P2;PMS_P1;PMS_P2;Temp;Humidity;BMP_temperature;BMP_pressure;BME280_temperature;BME280_humidity;BME280_pressure;Samples;Min_cycle;Max_cycle;Signal;HPM_P1;HPM_P2
2022/04/02 00:00:22;;;;;;;29.63;17.77;;;1.70;88.60;;;;;;5136394;27;20661;-58
2022/04/02 00:02:49;;;;;;;28.35;16.98;;;1.80;88.80;;;;;;5136167;27;20325;-58
2022/04/02 00:05:16;;;;;;;27.42;16.50;;;1.70;88.20;;;;;;5136446;27;20206;-58
2022/04/02 00:07:44;;;;;;;29.00;16.73;;;1.70;88.50;;;;;;5136360;27;20194;-57
2022/04/02 00:10:11;;;;;;;29.23;16.67;;;1.80;88.20;;;;;;5135906;27;20199;-58
2022/04/02 00:12:39;;;;;;;29.25;17.38;;;1.80;88.10;;;;;;5134756;27;20209;-58
2022/04/02 00:15:07;;;;;;;29.65;18.02;;;1.80;88.10;;;;;;5136133;27;20669;-58
2022/04/02 00:17:33;;;;;;;25.83;16.70;;;1.80;88.10;;;;;;5135978;27;20281;-58
2022/04/02 00:20:00;;;;;;;27.40;17.77;;;1.80;88.00;;;;;;5136029;27;20199;-58
2022/04/02 00:22:27;;;;;;;27.13;17.48;;;1.80;88.00;;;;;;5136088;27;20701;-58
2022/04/02 00:24:55;;;;;;;27.20;17.35;;;1.70;87.80;;;;;;5135949;27;20222;-58
2022/04/02 00:27:22;;;;;;;27.98;17.17;;;1.60;88.40;;;;;;5134529;27;20640;-58
2022/04/02 00:29:49;;;;;;;27.65;17.10;;;1.70;88.80;;;;;;5135711;27;20704;-58
2022/04/02 00:32:16;;;;;;;29.73;17.60;;;1.80;88.70;;;;;;5136017;27;20213;-58
2022/04/02 00:34:43;;;;;;;29.25;19.17;;;1.90;88.50;;;;;;5135839;27;20579;-58
2022/04/02 00:37:10;;;;;;;31.38;18.83;;;1.90;88.20;;;;;;5135822;27;20285;-58
2022/04/02 00:39:37;;;;;;;26.13;15.90;;;1.90;88.00;;;;;;5135659;27;20565;-58
2022/04/02 00:42:06;;;;;;;29.10;18.35;;;1.90;87.30;;;;;;5134161;27;20236;-58
2022/04/02 00:44:33;;;;;;;36.83;19.85;;;1.90;87.90;;;;;;5135470;27;20285;-58
2022/04/02 00:47:00;;;;;;;28.40;17.65;;;2.00;87.60;;;;;;5135672;27;20226;-58
2022/04/02 00:49:28;;;;;;;29.25;17.50;;;2.00;87.20;;;;;;5135583;27;20285;-58
2022/04/02 00:51:56;;;;;;;27.42;17.73;;;1.90;87.00;;;;;;5135475;27;20206;-58
2022/04/02 00:54:22;;;;;;;26.92;17.25;;;1.90;87.30;;;;;;5135349;27;20248;-58
2022/04/02 00:56:49;;;;;;;28.73;16.75;;;2.00;87.20;;;;;;5133896;27;20209;-58
2022/04/02 00:59:18;;;;;;;26.95;17.10;;;2.00;87.20;;;;;;5135221;27;20302;-58
2022/04/02 01:01:45;;;;;;;25.70;16.52;;;1.90;87.60;;;;;;5135077;27;20678;-58
2022/04/02 01:04:12;;;;;;;27.17;16.63;;;2.00;87.50;;;;;;5135277;27;20203;-58
2022/04/02 01:06:41;;;;;;;26.90;16.88;;;2.00;87.30;;;;;;5135165;27;20543;-58
2022/04/02 01:09:09;;;;;;;27.70;18.48;;;2.00;87.60;;;;;;5135009;27;20209;-59
2022/04/02 01:11:37;;;;;;;25.90;16.48;;;1.90;87.90;;;;;;5133600;27;20300;-58
2022/04/02 01:14:04;;;;;;;25.38;16.00;;;2.00;88.20;;;;;;5134983;27;20201;-58
2022/04/02 01:16:33;;;;;;;23.77;16.73;;;2.00;88.50;;;;;;5135048;27;20675;-58
2022/04/02 01:19:01;;;;;;;27.30;17.83;;;2.00;87.90;;;;;;5134875;27;20206;-58
2022/04/02 01:21:29;;;;;;;25.33;15.70;;;1.90;88.00;;;;;;5134155;27;20608;-58
2022/04/02 01:23:57;;;;;;;27.38;17.05;;;1.90;88.30;;;;;;5134895;27;20313;-58
2022/04/02 01:26:25;;;;;;;27.02;16.65;;;1.90;88.20;;;;;;5133250;27;20207;-58
2022/04/02 01:28:54;;;;;;;24.67;15.05;;;1.90;87.90;;;;;;5134646;27;20671;-58
2022/04/02 01:31:22;;;;;;;26.13;16.85;;;1.80;88.70;;;;;;5134523;27;20230;-58
2022/04/02 01:33:50;;;;;;;26.40;16.70;;;1.80;88.80;;;;;;5134645;27;20289;-59
2022/04/02 01:36:18;;;;;;;29.75;16.50;;;1.90;89.20;;;;;;5134538;27;20207;-58
2022/04/02 01:38:45;;;;;;;28.13;16.40;;;1.90;88.60;;;;;;5134492;27;20203;-58
2022/04/02 01:41:14;;;;;;;29.95;16.75;;;1.80;88.90;;;;;;5133033;27;20671;-58
2022/04/02 01:43:42;;;;;;;28.17;17.92;;;1.90;89.40;;;;;;5134373;27;20721;-58
2022/04/02 01:46:09;;;;;;;28.55;17.90;;;2.00;89.50;;;;;;5134434;27;20621;-58
2022/04/02 01:48:35;;;;;;;29.77;17.95;;;2.10;88.70;;;;;;5134666;27;20281;-58
2022/04/02 01:51:03;;;;;;;26.20;16.13;;;2.20;88.70;;;;;;5134253;27;20285;-58
2022/04/02 01:53:30;;;;;;;21.77;15.50;;;2.10;88.50;;;;;;5134267;27;20207;-58
2022/04/02 01:55:58;;;;;;;23.67;15.20;;;2.00;88.20;;;;;;5132973;27;20258;-58
2022/04/02 01:58:26;;;;;;;23.95;15.60;;;1.90;88.90;;;;;;5134336;27;20275;-58
2022/04/02 02:00:53;;;;;;;19.83;14.52;;;1.90;89.30;;;;;;5134210;27;20199;-59
2022/04/02 02:03:20;;;;;;;25.75;15.95;;;1.90;89.40;;;;;;5134024;27;20317;-58
2022/04/02 02:05:47;;;;;;;21.25;15.55;;;1.90;89.20;;;;;;5134156;27;20294;-58
2022/04/02 02:08:13;;;;;;;23.88;15.93;;;2.00;89.00;;;;;;5134148;27;20209;-58
2022/04/02 02:10:40;;;;;;;27.35;16.08;;;2.10;89.10;;;;;;5134133;27;20207;-59
2022/04/02 02:13:07;;;;;;;23.35;15.88;;;2.00;88.60;;;;;;5132908;27;20618;-59
2022/04/02 02:15:36;;;;;;;24.73;15.75;;;2.00;88.70;;;;;;5133972;27;20234;-58
2022/04/02 02:18:03;;;;;;;25.88;15.35;;;1.90;89.10;;;;;;5134022;27;20226;-58
2022/04/02 02:20:30;;;;;;;24.90;15.48;;;2.00;89.10;;;;;;5133813;27;20206;-58
2022/04/02 02:22:56;;;;;;;25.63;15.18;;;2.00;89.00;;;;;;5133759;27;20230;-58
2022/04/02 02:25:23;;;;;;;21.13;14.82;;;2.00;89.00;;;;;;5133928;27;20234;-58
2022/04/02 02:27:51;;;;;;;22.40;15.10;;;1.80;88.80;;;;;;5132403;27;20234;-58
2022/04/02 02:30:18;;;;;;;22.58;15.18;;;1.70;89.30;;;;;;5133723;27;20321;-58
2022/04/02 02:32:46;;;;;;;19.95;14.38;;;1.70;90.00;;;;;;5137098;27;20234;-58
2022/04/02 02:38:06;;;;;;;21.73;14.43;;;1.80;90.30;;;;;;5138192;27;20201;-58
2022/04/02 02:40:34;;;;;;;19.20;12.95;;;1.90;89.80;;;;;;5138191;27;20206;-58
2022/04/02 02:43:00;;;;;;;19.65;13.48;;;1.90;89.80;;;;;;5136592;27;20237;-58
2022/04/02 02:45:27;;;;;;;19.40;14.27;;;1.90;89.60;;;;;;5138002;27;20295;-58
2022/04/02 02:47:56;;;;;;;17.50;12.48;;;1.90;89.30;;;;;;5137864;27;20605;-58
2022/04/02 02:50:23;;;;;;;18.20;13.10;;;1.80;89.60;;;;;;5137870;27;20206;-58
2022/04/02 02:52:50;;;;;;;19.52;13.35;;;1.70;90.10;;;;;;5137839;27;20209;-58
2022/04/02 02:55:18;;;;;;;18.88;12.52;;;1.80;90.20;;;;;;5137666;27;20732;-59
2022/04/02 02:57:46;;;;;;;18.42;13.20;;;1.80;89.90;;;;;;5136225;27;20213;-59
2022/04/02 03:00:15;;;;;;;18.85;12.80;;;1.70;90.00;;;;;;5137517;27;20199;-59
2022/04/02 03:02:42;;;;;;;19.90;13.82;;;1.80;89.80;;;;;;5137544;27;20701;-57
2022/04/02 03:05:12;;;;;;;19.15;13.60;;;1.80;89.70;;;;;;5137505;27;20208;-59
2022/04/02 03:07:41;;;;;;;17.17;12.82;;;1.70;89.80;;;;;;5137503;27;20675;-59
2022/04/02 03:10:09;;;;;;;19.33;13.68;;;1.70;90.10;;;;;;5137575;27;20230;-60
2022/04/02 03:12:36;;;;;;;18.30;13.10;;;1.70;90.20;;;;;;5135986;27;20573;-59
2022/04/02 03:15:03;;;;;;;19.60;12.60;;;1.70;90.10;;;;;;5137339;27;20289;-59
2022/04/02 03:17:31;;;;;;;22.25;13.85;;;1.70;89.90;;;;;;5137227;27;20198;-59
2022/04/02 03:19:58;;;;;;;16.88;12.90;;;1.70;89.80;;;;;;5137289;27;20294;-59
2022/04/02 03:22:27;;;;;;;16.88;12.73;;;1.60;90.00;;;;;;5137125;27;20237;-59
2022/04/02 03:24:54;;;;;;;20.20;13.25;;;1.70;90.20;;;;;;5137601;27;20198;-59
2022/04/02 03:27:21;;;;;;;17.52;12.05;;;1.60;89.50;;;;;;5135520;27;20679;-59
2022/04/02 03:29:48;;;;;;;15.80;11.93;;;1.40;90.00;;;;;;5137060;27;20253;-57
2022/04/02 03:32:15;;;;;;;18.13;11.38;;;1.40;90.50;;;;;;5137070;27;20648;-59
2022/04/02 03:34:42;;;;;;;19.00;12.30;;;1.40;91.00;;;;;;5137036;27;20213;-59
2022/04/02 03:37:09;;;;;;;15.55;11.50;;;1.30;90.80;;;;;;5137116;27;20657;-59
2022/04/02 03:39:37;;;;;;;18.40;12.48;;;1.30;90.90;;;;;;5136981;27;20206;-59
2022/04/02 03:42:05;;;;;;;17.25;12.50;;;1.30;91.10;;;;;;5135332;27;20286;-59
2022/04/02 03:44:32;;;;;;;16.75;11.90;;;1.30;91.20;;;;;;5136210;27;20199;-58
2022/04/02 03:47:11;;;;;;;16.85;11.35;;;1.40;91.30;;;;;;5136829;27;20203;-58
2022/04/02 03:49:38;;;;;;;17.65;12.00;;;1.40;90.80;;;;;;5136859;27;20302;-59
2022/04/02 03:52:06;;;;;;;20.05;12.20;;;1.30;90.60;;;;;;5136718;27;20203;-59
2022/04/02 03:54:35;;;;;;;20.98;12.35;;;1.20;90.70;;;;;;5136603;27;20298;-60
2022/04/02 03:57:04;;;;;;;18.13;10.50;;;1.10;91.20;;;;;;5135108;27;20194;-60
2022/04/02 03:59:31;;;;;;;20.48;12.05;;;1.10;91.30;;;;;;5136506;27;20562;-59
2022/04/02 04:01:58;;;;;;;15.63;11.32;;;1.10;91.40;;;;;;5136577;27;20203;-58
2022/04/02 04:04:25;;;;;;;20.35;12.02;;;1.20;91.70;;;;;;5136500;27;20230;-60
2022/04/02 04:06:53;;;;;;;14.25;10.43;;;1.20;91.30;;;;;;5136310;27;20290;-59
2022/04/02 04:09:19;;;;;;;22.38;10.82;;;1.20;91.30;;;;;;5136335;27;20209;-60
2022/04/02 04:11:47;;;;;;;13.75;9.70;;;1.30;91.20;;;;;;5134817;27;20298;-60
2022/04/02 04:14:16;;;;;;;15.65;10.35;;;1.30;90.70;;;;;;5136277;27;20241;-60
2022/04/02 04:16:42;;;;;;;17.98;10.55;;;1.40;90.70;;;;;;5136346;27;20214;-60
2022/04/02 04:19:09;;;;;;;13.73;9.43;;;1.20;90.20;;;;;;5136123;27;20207;-60
2022/04/02 04:21:37;;;;;;;16.33;9.88;;;1.10;90.60;;;;;;5135865;27;20218;-60
2022/04/02 04:24:06;;;;;;;15.82;10.38;;;1.10;91.10;;;;;;5135912;27;20230;-60
2022/04/02 04:26:33;;;;;;;12.95;9.00;;;1.20;90.70;;;;;;5134578;27;20682;-60
2022/04/02 04:29:00;;;;;;;13.63;9.10;;;1.20;90.50;;;;;;5135917;27;20297;-60
2022/04/02 04:31:29;;;;;;;16.83;10.45;;;1.10;90.70;;;;;;5135818;27;20233;-60
2022/04/02 04:33:56;;;;;;;13.93;9.50;;;1.00;90.90;;;;;;5135767;27;20226;-60
2022/04/02 04:36:24;;;;;;;15.40;9.60;;;0.90;91.10;;;;;;5135759;27;20623;-60
2022/04/02 04:38:52;;;;;;;14.95;9.43;;;0.90;91.30;;;;;;5135842;27;20202;-60
2022/04/02 04:41:20;;;;;;;14.23;8.50;;;0.90;91.40;;;;;;5134365;27;20198;-60
2022/04/02 04:43:48;;;;;;;15.35;9.80;;;1.00;91.40;;;;;;5135340;27;20241;-60
2022/04/02 04:46:16;;;;;;;13.95;10.13;;;1.10;91.10;;;;;;5135653;27;20206;-60
2022/04/02 04:48:45;;;;;;;18.00;10.23;;;1.00;91.20;;;;;;5135409;27;20198;-60
2022/04/02 04:51:13;;;;;;;14.50;10.05;;;1.10;91.40;;;;;;5135532;27;20209;-59
2022/04/02 04:53:41;;;;;;;16.60;10.88;;;1.20;91.60;;;;;;5135488;27;20295;-59
2022/04/02 04:56:08;;;;;;;17.27;11.35;;;1.30;91.00;;;;;;5133141;27;20221;-59
2022/04/02 04:58:35;;;;;;;14.65;10.85;;;1.30;90.30;;;;;;5135305;27;20210;-59
2022/04/02 05:01:02;;;;;;;16.13;11.13;;;1.20;90.60;;;;;;5135327;27;20206;-59
2022/04/02 05:03:32;;;;;;;15.05;10.63;;;1.20;91.10;;;;;;5135123;27;20704;-59
2022/04/02 05:06:01;;;;;;;17.52;11.25;;;1.20;91.00;;;;;;5135168;27;20260;-59
2022/04/02 05:08:32;;;;;;;15.98;11.07;;;1.10;91.00;;;;;;5135101;27;20613;-59
2022/04/02 05:11:00;;;;;;;17.02;11.73;;;1.10;90.90;;;;;;5133941;27;20267;-59
2022/04/02 05:13:27;;;;;;;15.65;10.35;;;1.10;91.10;;;;;;5134901;27;20209;-59
2022/04/02 05:15:54;;;;;;;16.35;11.23;;;1.00;91.20;;;;;;5134866;27;20199;-59
2022/04/02 05:18:21;;;;;;;18.63;10.77;;;1.00;91.20;;;;;;5135062;27;20213;-59
2022/04/02 05:20:48;;;;;;;16.63;11.07;;;1.00;90.70;;;;;;5134873;27;20564;-60
2022/04/02 05:23:16;;;;;;;14.20;10.35;;;0.90;90.90;;;;;;5134968;27;20563;-59
2022/04/02 05:25:43;;;;;;;16.15;10.70;;;0.90;90.90;;;;;;5134961;27;20207;-59
2022/04/02 05:28:10;;;;;;;19.10;12.05;;;0.90;91.60;;;;;;5133307;27;20291;-59
2022/04/02 05:30:38;;;;;;;15.70;11.50;;;0.90;91.70;;;;;;5134494;27;20321;-59
2022/04/02 05:33:05;;;;;;;15.55;10.85;;;0.90;91.50;;;;;;5134642;27;20206;-59
2022/04/02 05:35:32;;;;;;;16.75;10.68;;;0.80;91.60;;;;;;5134668;27;20245;-59
2022/04/02 05:37:59;;;;;;;17.75;12.30;;;0.90;92.00;;;;;;5134555;27;20213;-59
2022/04/02 05:40:28;;;;;;;18.65;11.95;;;0.90;91.80;;;;;;5134521;27;20290;-59
2022/04/02 05:42:54;;;;;;;16.40;10.63;;;0.90;91.80;;;;;;5132782;27;20223;-59
2022/04/02 05:45:21;;;;;;;17.45;11.30;;;0.90;91.80;;;;;;5134463;27;20202;-59
2022/04/02 05:47:50;;;;;;;16.90;11.27;;;0.90;91.70;;;;;;5134509;27;20209;-59
2022/04/02 05:50:19;;;;;;;16.77;10.52;;;1.00;92.20;;;;;;5134506;27;20210;-59
2022/04/02 05:52:46;;;;;;;16.95;10.85;;;1.00;91.50;;;;;;5134406;27;20203;-59
2022/04/02 05:55:13;;;;;;;15.23;10.88;;;1.10;91.40;;;;;;5134377;27;20215;-59
2022/04/02 05:57:44;;;;;;;16.40;11.63;;;1.10;91.00;;;;;;5132776;27;20211;-59
2022/04/02 06:00:13;;;;;;;15.20;11.00;;;1.10;90.80;;;;;;5134227;27;20275;-59
2022/04/02 06:02:41;;;;;;;15.50;10.93;;;1.10;90.80;;;;;;5134183;27;20281;-59
2022/04/02 06:05:09;;;;;;;15.88;10.60;;;1.20;90.90;;;;;;5134057;27;20226;-59
2022/04/02 06:07:36;;;;;;;13.90;10.30;;;1.20;90.70;;;;;;5133812;27;20293;-58
2022/04/02 06:10:05;;;;;;;13.27;9.93;;;1.20;90.50;;;;;;5133951;27;20271;-58
2022/04/02 06:12:32;;;;;;;15.63;11.35;;;1.30;90.60;;;;;;5132561;27;20202;-58
2022/04/02 06:15:01;;;;;;;14.63;10.35;;;1.30;90.50;;;;;;5134117;27;20704;-58
2022/04/02 06:17:28;;;;;;;17.38;10.82;;;1.40;90.00;;;;;;5133952;27;20205;-58
2022/04/02 06:19:55;;;;;;;14.27;9.60;;;1.40;89.60;;;;;;5134173;27;20298;-58
2022/04/02 06:22:22;;;;;;;17.15;10.57;;;1.40;89.90;;;;;;5133861;27;20226;-58
2022/04/02 06:24:49;;;;;;;16.90;10.07;;;1.50;89.70;;;;;;5133696;27;20269;-58
2022/04/02 06:27:16;;;;;;;16.33;10.88;;;1.40;89.20;;;;;;5132424;27;20299;-59
2022/04/02 06:29:43;;;;;;;17.35;11.63;;;1.40;89.60;;;;;;5133564;27;20260;-58
2022/04/02 06:32:11;;;;;;;15.30;9.80;;;1.40;89.70;;;;;;5133786;27;20713;-58
2022/04/02 06:34:38;;;;;;;14.02;10.40;;;1.40;89.60;;;;;;5133787;27;20206;-60
2022/04/02 06:37:05;;;;;;;21.38;10.57;;;1.30;89.90;;;;;;5133637;27;20247;-58
2022/04/02 06:39:32;;;;;;;14.15;10.05;;;1.30;90.30;;;;;;5133749;27;20256;-58
2022/04/02 06:41:59;;;;;;;15.63;11.00;;;1.30;90.10;;;;;;5132292;27;20570;-58
2022/04/02 06:44:29;;;;;;;14.48;10.15;;;1.40;90.20;;;;;;5133700;27;20569;-58
2022/04/02 06:46:57;;;;;;;14.30;10.10;;;1.50;89.50;;;;;;5133670;27;20259;-59
2022/04/02 06:49:25;;;;;;;14.93;9.65;;;1.30;88.90;;;;;;5133635;27;20202;-59
2022/04/02 06:51:52;;;;;;;14.05;8.93;;;1.20;89.60;;;;;;5133483;27;20203;-60
2022/04/02 06:54:19;;;;;;;17.15;10.35;;;1.30;89.50;;;;;;5133771;27;20203;-58
2022/04/02 06:56:48;;;;;;;14.90;10.55;;;1.20;89.50;;;;;;5132301;27;20285;-58
2022/04/02 06:59:15;;;;;;;12.07;8.93;;;1.20;89.90;;;;;;5133464;27;20293;-58
2022/04/02 07:01:42;;;;;;;14.90;9.90;;;1.30;90.00;;;;;;5133484;27;20671;-58
2022/04/02 07:04:09;;;;;;;13.10;8.93;;;1.20;89.70;;;;;;5133376;27;20701;-58
2022/04/02 07:06:38;;;;;;;10.93;9.13;;;1.30;90.00;;;;;;5133470;27;20293;-60
2022/04/02 07:09:05;;;;;;;14.85;9.40;;;1.20;89.90;;;;;;5133512;27;20228;-60
2022/04/02 07:11:32;;;;;;;11.82;8.82;;;1.20;90.20;;;;;;5132124;27;20195;-58
2022/04/02 07:14:00;;;;;;;14.07;10.25;;;1.20;90.20;;;;;;5133249;27;20214;-59
2022/04/02 07:16:28;;;;;;;14.73;8.95;;;1.30;89.90;;;;;;5133534;27;20203;-59
2022/04/02 07:18:58;;;;;;;12.80;8.50;;;1.30;89.80;;;;;;5134780;27;20209;-59
2022/04/02 07:21:27;;;;;;;15.52;9.02;;;1.20;89.50;;;;;;5137247;27;20222;-60
2022/04/02 07:23:56;;;;;;;12.45;8.50;;;1.20;90.10;;;;;;5137127;27;20692;-58
2022/04/02 07:26:23;;;;;;;12.18;8.57;;;1.10;90.50;;;;;;5135804;27;20293;-58
2022/04/02 07:28:52;;;;;;;11.75;8.57;;;1.00;90.50;;;;;;5136919;27;20202;-60
2022/04/02 07:31:19;;;;;;;17.52;9.38;;;0.90;91.30;;;;;;5137056;27;20628;-58
2022/04/02 07:33:46;;;;;;;11.18;8.35;;;0.90;91.20;;;;;;5136932;27;20202;-59
2022/04/02 07:36:24;;;;;;;14.00;8.90;;;0.80;91.50;;;;;;5137042;27;20218;-58
2022/04/02 07:39:00;;;;;;;13.82;8.93;;;0.80;91.60;;;;;;5137069;27;20292;-58
2022/04/02 07:41:34;;;;;;;13.30;8.18;;;0.90;91.70;;;;;;5135635;27;20209;-59
2022/04/02 07:44:07;;;;;;;15.27;9.68;;;0.90;91.70;;;;;;5136379;27;20353;-59
2022/04/02 07:46:35;;;;;;;13.05;8.88;;;1.00;91.30;;;;;;5136838;27;20203;-60
2022/04/02 07:49:04;;;;;;;16.10;9.57;;;0.90;90.60;;;;;;5136589;27;20290;-60
2022/04/02 07:51:31;;;;;;;13.82;8.95;;;1.00;91.00;;;;;;5136688;27;20203;-59
2022/04/02 07:54:02;;;;;;;12.48;8.95;;;0.90;90.90;;;;;;5136650;27;20253;-59
2022/04/02 07:56:31;;;;;;;13.55;9.25;;;1.00;91.40;;;;;;5135048;27;20203;-59
2022/04/02 07:59:01;;;;;;;13.73;9.38;;;1.00;90.40;;;;;;5136350;27;20206;-59
2022/04/02 08:01:28;;;;;;;14.63;9.20;;;1.00;90.90;;;;;;5136575;27;20198;-59
2022/04/02 08:03:56;;;;;;;12.52;8.10;;;1.00;91.00;;;;;;5136541;27;20227;-59
2022/04/02 08:06:23;;;;;;;12.07;8.15;;;1.00;91.10;;;;;;5136290;27;20231;-56
2022/04/02 08:08:51;;;;;;;14.00;8.60;;;1.00;90.50;;;;;;5136242;27;20209;-59
2022/04/02 08:11:20;;;;;;;13.13;8.15;;;1.10;90.50;;;;;;5135107;27;20285;-59
2022/04/02 08:13:47;;;;;;;12.50;8.35;;;1.10;90.20;;;;;;5136262;27;20592;-59
2022/04/02 08:16:14;;;;;;;12.90;9.00;;;1.00;90.10;;;;;;5136246;27;20226;-59
2022/04/02 08:18:42;;;;;;;13.20;8.80;;;1.00;90.70;;;;;;5136007;27;20206;-59
2022/04/02 08:21:09;;;;;;;11.93;8.20;;;1.10;90.80;;;;;;5135946;27;20306;-58
2022/04/02 08:23:36;;;;;;;12.13;8.95;;;1.20;90.50;;;;;;5136009;27;20210;-59
2022/04/02 08:26:11;;;;;;;13.80;8.57;;;1.10;90.10;;;;;;5134766;27;20366;-59
2022/04/02 08:28:53;;;;;;;11.80;8.38;;;1.10;90.30;;;;;;5135767;27;20752;-59
2022/04/02 08:31:30;;;;;;;13.27;8.43;;;1.00;90.50;;;;;;5135673;27;20234;-59
2022/04/02 08:34:05;;;;;;;14.23;9.52;;;1.00;91.00;;;;;;5135772;27;20202;-59
2022/04/02 08:36:39;;;;;;;11.65;7.88;;;1.00;91.00;;;;;;5136005;27;20229;-59
2022/04/02 08:39:11;;;;;;;12.10;8.05;;;0.90;90.90;;;;;;5135625;27;20653;-59
2022/04/02 08:42:27;;;;;;;13.27;8.30;;;0.90;90.50;;;;;;5134445;27;20561;-58
2022/04/02 08:45:05;;;;;;;12.55;9.05;;;0.90;90.70;;;;;;5135541;27;20230;-58
2022/04/02 08:48:10;;;;;;;10.68;8.57;;;1.00;90.90;;;;;;5135551;27;20202;-59
2022/04/02 08:50:43;;;;;;;17.38;9.32;;;1.10;90.10;;;;;;5116506;27;20206;-58
2022/04/02 08:53:18;;;;;;;12.18;8.50;;;1.20;89.60;;;;;;5135579;27;20641;-57
2022/04/02 08:55:49;;;;;;;11.15;8.52;;;1.00;89.50;;;;;;5135440;27;20210;-58
2022/04/02 08:58:32;;;;;;;12.98;8.50;;;1.00;90.20;;;;;;5134803;27;20684;-58
2022/04/02 09:01:07;;;;;;;14.50;9.98;;;1.00;90.40;;;;;;5135345;27;20206;-58
2022/04/02 09:04:15;;;;;;;13.15;9.23;;;1.00;90.20;;;;;;5135274;27;20210;-58
2022/04/02 09:07:24;;;;;;;13.07;9.00;;;1.00;90.20;;;;;;5135174;27;20213;-58
2022/04/02 09:10:21;;;;;;;12.80;9.15;;;0.90;91.00;;;;;;5135316;27;20217;-58
2022/04/02 09:13:05;;;;;;;14.18;8.52;;;1.10;90.90;;;;;;5133661;27;20314;-58
2022/04/02 09:15:50;;;;;;;13.63;9.70;;;1.20;90.70;;;;;;5135067;27;20220;-58
2022/04/02 09:18:34;;;;;;;15.98;10.52;;;1.10;89.80;;;;;;5134945;27;20277;-58
2022/04/02 09:21:07;;;;;;;15.05;10.45;;;1.00;89.50;;;;;;5134728;27;20229;-59
2022/04/02 09:23:44;;;;;;;16.00;9.75;;;0.90;90.00;;;;;;5134867;27;20653;-59
2022/04/02 09:26:48;;;;;;;16.17;10.38;;;0.80;90.70;;;;;;5133399;27;20237;-59
2022/04/02 09:29:16;;;;;;;16.35;10.20;;;0.80;91.00;;;;;;5134766;27;20230;-58
2022/04/02 09:32:22;;;;;;;16.73;10.50;;;0.80;91.10;;;;;;5134611;27;20260;-59
2022/04/02 09:35:30;;;;;;;15.30;10.10;;;0.90;90.70;;;;;;5134850;27;20198;-58
2022/04/02 09:38:33;;;;;;;17.42;10.65;;;0.90;90.10;;;;;;5134587;27;20271;-58
2022/04/02 09:41:14;;;;;;;18.75;10.70;;;0.90;90.60;;;;;;5132746;27;20199;-59
2022/04/02 09:43:58;;;;;;;17.33;10.80;;;0.90;90.40;;;;;;5134367;27;20560;-59
2022/04/02 09:46:45;;;;;;;13.52;9.77;;;0.90;90.10;;;;;;5134414;27;20230;-58
2022/04/02 09:49:23;;;;;;;17.08;10.75;;;0.80;90.10;;;;;;5134185;27;20209;-58
2022/04/02 09:52:02;;;;;;;16.63;10.90;;;0.90;90.70;;;;;;5134478;27;20194;-58
2022/04/02 09:54:37;;;;;;;17.80;11.32;;;1.00;90.40;;;;;;5134322;27;20206;-59
2022/04/02 09:57:09;;;;;;;18.65;10.85;;;1.00;90.60;;;;;;5133064;27;20206;-58
2022/04/02 09:59:49;;;;;;;16.23;10.55;;;1.00;90.60;;;;;;5133955;27;20203;-59
2022/04/02 10:02:44;;;;;;;15.23;10.60;;;1.00;90.50;;;;;;5134223;27;20199;-59
2022/04/02 10:05:16;;;;;;;17.13;10.65;;;1.10;90.50;;;;;;5134202;27;20237;-59
2022/04/02 10:07:58;;;;;;;22.02;10.48;;;1.10;90.10;;;;;;5134178;27;20207;-59
2022/04/02 10:10:27;;;;;;;14.85;9.90;;;1.00;90.10;;;;;;5134264;27;20210;-59
2022/04/02 10:12:57;;;;;;;16.90;11.65;;;1.00;89.70;;;;;;5132612;27;20202;-59
2022/04/02 10:15:24;;;;;;;14.30;10.25;;;1.10;90.00;;;;;;5134052;27;20657;-59
2022/04/02 10:17:53;;;;;;;15.30;9.93;;;1.20;89.90;;;;;;5134011;27;20293;-59
2022/04/02 10:20:23;;;;;;;20.55;10.43;;;1.10;88.90;;;;;;5133831;27;20757;-57
2022/04/02 10:23:03;;;;;;;17.50;10.98;;;1.00;89.00;;;;;;5133880;27;20202;-59
2022/04/02 10:25:34;;;;;;;16.50;10.95;;;0.90;89.00;;;;;;5133899;27;20226;-58
2022/04/02 10:28:04;;;;;;;13.90;10.20;;;0.90;89.50;;;;;;5132390;27;20657;-59
2022/04/02 10:30:34;;;;;;;18.92;11.10;;;0.80;89.10;;;;;;5133811;27;20727;-58
2022/04/02 10:33:26;;;;;;;17.65;10.35;;;0.80;89.50;;;;;;5133651;27;20221;-59
2022/04/02 10:35:51;;;;;;;15.68;10.20;;;0.90;89.70;;;;;;5133695;27;20198;-59
2022/04/02 10:38:32;;;;;;;18.95;11.43;;;0.90;89.60;;;;;;5133749;27;20300;-59
2022/04/02 10:41:02;;;;;;;16.50;9.65;;;1.00;89.60;;;;;;5132454;27;20195;-59
2022/04/02 10:43:35;;;;;;;21.63;11.75;;;1.00;89.90;;;;;;5133536;27;20203;-59
2022/04/02 10:46:04;;;;;;;17.90;11.20;;;1.00;90.20;;;;;;5133685;27;20313;-59
2022/04/02 10:48:44;;;;;;;18.80;11.43;;;1.00;90.20;;;;;;5133638;27;20256;-59
2022/04/02 10:51:14;;;;;;;19.02;10.65;;;1.10;90.50;;;;;;5133893;27;20198;-59
2022/04/02 10:53:44;;;;;;;16.90;10.70;;;1.20;89.80;;;;;;5134779;27;20202;-59
2022/04/02 10:56:17;;;;;;;14.98;10.65;;;1.10;89.70;;;;;;5136440;27;20206;-59
2022/04/02 10:58:49;;;;;;;16.05;10.82;;;1.10;89.50;;;;;;5137749;27;20199;-59
2022/04/02 11:01:18;;;;;;;17.10;11.25;;;1.00;89.00;;;;;;5137796;27;20213;-59
2022/04/02 11:03:54;;;;;;;16.70;11.35;;;1.00;89.30;;;;;;5137640;27;20198;-59
2022/04/02 11:06:46;;;;;;;16.60;11.70;;;0.90;89.70;;;;;;5137364;27;20590;-59
2022/04/02 11:09:33;;;;;;;15.70;10.57;;;1.00;90.40;;;;;;5137556;27;20296;-59
2022/04/02 11:12:06;;;;;;;16.83;10.63;;;1.00;89.50;;;;;;5136385;27;20213;-58
2022/04/02 11:14:43;;;;;;;16.67;11.32;;;0.90;89.40;;;;;;5137220;27;20289;-58
2022/04/02 11:17:10;;;;;;;17.50;11.48;;;1.00;89.60;;;;;;5137430;27;20213;-59
2022/04/02 11:19:56;;;;;;;16.30;10.95;;;1.00;89.60;;;;;;5137118;27;20672;-59
2022/04/02 11:22:29;;;;;;;14.43;10.20;;;1.00;89.40;;;;;;5137268;27;20756;-59
2022/04/02 11:25:06;;;;;;;17.48;11.35;;;0.90;89.20;;;;;;5137054;27;20222;-59
2022/04/02 11:27:37;;;;;;;16.38;11.15;;;0.90;89.50;;;;;;5135998;27;20657;-59
2022/04/02 11:30:08;;;;;;;13.63;10.00;;;1.00;89.80;;;;;;5136795;27;20250;-59
2022/04/02 11:32:40;;;;;;;15.25;11.60;;;1.00;89.60;;;;;;5137129;27;20217;-59
2022/04/02 11:35:15;;;;;;;17.85;11.27;;;1.10;89.80;;;;;;5137061;27;20216;-59
2022/04/02 11:37:56;;;;;;;16.63;10.52;;;1.20;89.70;;;;;;5136770;27;20201;-59
2022/04/02 11:40:27;;;;;;;17.35;11.38;;;1.10;89.30;;;;;;5136958;27;20554;-60
2022/04/02 11:42:54;;;;;;;22.10;12.55;;;1.20;89.90;;;;;;5135496;27;20285;-59
2022/04/02 11:45:23;;;;;;;17.27;11.35;;;1.30;89.50;;;;;;5136636;27;20237;-59
2022/04/02 11:47:51;;;;;;;19.50;13.20;;;1.40;89.50;;;;;;5136766;27;20290;-59
2022/04/02 11:50:26;;;;;;;19.88;12.00;;;1.50;89.10;;;;;;5136658;27;20293;-59
2022/04/02 11:52:55;;;;;;;17.52;12.50;;;1.70;89.10;;;;;;5136628;27;20198;-57
2022/04/02 11:55:23;;;;;;;16.52;12.00;;;1.80;88.10;;;;;;5136709;27;20293;-59
2022/04/02 11:58:02;;;;;;;15.95;12.10;;;1.70;88.30;;;;;;5135293;27;20194;-59
2022/04/02 12:00:32;;;;;;;13.07;10.13;;;1.50;88.00;;;;;;5136327;27;20223;-59
2022/04/02 12:03:00;;;;;;;16.67;11.68;;;1.40;88.50;;;;;;5136518;27;20198;-59
2022/04/02 12:05:38;;;;;;;15.35;10.95;;;1.40;88.60;;;;;;5135797;27;20222;-59
2022/04/02 12:08:06;;;;;;;16.20;10.95;;;1.40;88.10;;;;;;5136421;27;20220;-59
2022/04/02 12:10:36;;;;;;;18.40;12.15;;;1.40;88.30;;;;;;5136404;27;20230;-59
2022/04/02 12:13:08;;;;;;;18.13;11.88;;;1.40;88.20;;;;;;5134735;27;20604;-59
2022/04/02 12:15:38;;;;;;;16.33;11.60;;;1.20;88.50;;;;;;5136260;27;20299;-60
2022/04/02 12:18:07;;;;;;;15.73;11.20;;;1.30;88.70;;;;;;5136089;27;20673;-59
2022/04/02 12:20:36;;;;;;;18.50;12.48;;;1.30;89.00;;;;;;5136084;27;20569;-58
2022/04/02 12:23:08;;;;;;;22.77;11.93;;;1.30;88.80;;;;;;5136099;27;20209;-58
2022/04/02 12:25:36;;;;;;;21.00;12.73;;;1.20;89.00;;;;;;5135934;27;20232;-58
2022/04/02 12:28:12;;;;;;;18.60;12.90;;;1.20;89.80;;;;;;5134496;27;20745;-59
2022/04/02 12:30:46;;;;;;;20.95;12.63;;;1.30;89.50;;;;;;5135992;27;20261;-58
2022/04/02 12:33:15;;;;;;;19.92;13.20;;;1.30;88.90;;;;;;5135795;27;20234;-59
2022/04/02 12:35:46;;;;;;;22.75;13.13;;;1.20;89.00;;;;;;5135989;27;20206;-58
2022/04/02 12:38:25;;;;;;;17.85;12.15;;;1.10;89.50;;;;;;5135765;27;20560;-58
2022/04/02 12:40:52;;;;;;;22.95;12.88;;;1.10;89.90;;;;;;5134900;27;20202;-58
2022/04/02 12:43:25;;;;;;;19.20;12.88;;;1.20;90.20;;;;;;5135401;27;20203;-61
2022/04/02 12:45:53;;;;;;;22.20;13.57;;;1.20;89.90;;;;;;5135688;27;20222;-59
2022/04/02 12:48:20;;;;;;;20.90;13.88;;;1.30;89.90;;;;;;5135561;27;20672;-61
2022/04/02 12:50:52;;;;;;;20.17;13.85;;;1.20;89.90;;;;;;5135366;27;20297;-60
2022/04/02 12:53:28;;;;;;;25.55;16.00;;;1.20;90.20;;;;;;5135613;27;20285;-59
2022/04/02 12:55:56;;;;;;;24.35;15.00;;;1.20;89.80;;;;;;5134211;27;20198;-59
2022/04/02 12:58:32;;;;;;;21.42;14.05;;;1.20;89.90;;;;;;5135220;27;20194;-61